Time;durP1;ratioP1;P1;durP2;ratioP2;P2;SDS_P1;SDS_P2;PMS_P1;PMS_P2;Temp;Humidity;BMP_temperature;BMP_pressure;BME280_temperature;BME280_humidity;BME280_pressure;Samples;Min_cycle;Max_cycle;Signal;HPM_P1;HPM_P2
2021/06/09 00:02:02;;;;;;;;;;;;;;;17.70;57.26;100868.16;4917528;29;19926;-64
2021/06/09 00:04:29;;;;;;;;;;;;;;;17.70;57.61;100861.69;4918028;29;20311;-64
2021/06/09 00:06:56;;;;;;;;;;;;;;;17.68;57.88;100862.00;4917708;29;20021;-65
2021/06/09 00:09:23;;;;;;;;;;;;;;;17.67;58.42;100854.66;4917434;29;19923;-64
2021/06/09 00:11:50;;;;;;;;;;;;;;;17.69;58.73;100855.19;4917443;29;19973;-64
2021/06/09 00:14:18;;;;;;;;;;;;;;;17.65;59.44;100856.16;4916435;29;19922;-65
2021/06/09 00:16:45;;;;;;;;;;;;;;;17.56;60.40;100850.44;4917557;29;20022;-66
2021/06/09 00:19:12;;;;;;;;;;;;;;;17.50;61.07;100848.88;4917215;29;20372;-63
2021/06/09 00:21:39;;;;;;;;;;;;;;;17.47;61.58;100850.38;4917319;29;20025;-64
2021/06/09 00:24:06;;;;;;;;;;;;;;;17.43;61.67;100846.50;4917642;29;20017;-65
2021/06/09 00:26:33;;;;;;;;;;;;;;;17.50;61.62;100843.25;4917347;29;20465;-64
2021/06/09 00:28:59;;;;;;;;;;;;;;;17.56;61.42;100841.97;4917699;29;20014;-63
2021/06/09 00:31:26;;;;;;;;;;;;;;;17.62;61.27;100840.69;4917293;29;19929;-65
2021/06/09 00:33:53;;;;;;;;;;;;;;;17.67;60.47;100843.38;4900516;29;19930;-63
2021/06/09 00:36:20;;;;;;;;;;;;;;;17.72;60.63;100829.13;4917163;29;20018;-64
2021/06/09 00:38:46;;;;;;;;;;;;;;;17.72;60.26;100834.78;4918583;29;19923;-65
2021/06/09 00:41:13;;;;;;;;;;;;;;;17.71;59.92;100838.78;4921349;29;20044;-65
2021/06/09 00:43:40;;;;;;;;;;;;;;;17.69;59.76;100835.44;4921293;29;20009;-65
2021/06/09 00:46:09;;;;;;;;;;;;;;;17.65;59.74;100834.41;4921289;29;19926;-64
2021/06/09 00:48:39;;;;;;;;;;;;;;;17.61;59.70;100824.91;4921217;29;20340;-65
2021/06/09 00:51:13;;;;;;;;;;;;;;;17.61;59.49;100835.38;4920904;29;19966;-64
2021/06/09 00:53:48;;;;;;;;;;;;;;;17.59;59.59;100824.38;4920851;29;19947;-64
2021/06/09 00:56:15;;;;;;;;;;;;;;;17.59;59.27;100830.03;4920994;29;20017;-65
2021/06/09 00:58:44;;;;;;;;;;;;;;;17.58;59.22;100831.19;4921255;29;19930;-65
2021/06/09 01:01:12;;;;;;;;;;;;;;;17.57;59.00;100832.34;4920681;29;19989;-64
2021/06/09 01:03:40;;;;;;;;;;;;;;;17.55;58.79;100829.00;4920690;29;19978;-64
2021/06/09 01:06:07;;;;;;;;;;;;;;;17.53;58.72;100823.66;4920915;29;20005;-63
2021/06/09 01:08:36;;;;;;;;;;;;;;;17.52;59.00;100818.38;4920891;29;19962;-64
2021/06/09 01:11:07;;;;;;;;;;;;;;;17.49;58.87;100825.47;4920500;29;19979;-64
2021/06/09 01:13:33;;;;;;;;;;;;;;;17.47;59.13;100824.13;4920457;29;20009;-64
2021/06/09 01:16:00;;;;;;;;;;;;;;;17.45;58.85;100830.09;4920526;29;20022;-64
2021/06/09 01:18:27;;;;;;;;;;;;;;;17.42;58.92;100836.38;4920278;29;19962;-64
2021/06/09 01:20:55;;;;;;;;;;;;;;;17.40;58.80;100826.56;4903867;29;19959;-64
2021/06/09 01:23:21;;;;;;;;;;;;;;;17.36;58.75;100834.00;4920376;29;20169;-64
2021/06/09 01:25:49;;;;;;;;;;;;;;;17.34;58.93;100834.34;4920594;29;20027;-64
2021/06/09 01:28:15;;;;;;;;;;;;;;;17.33;58.81;100829.00;4920242;29;20026;-64
2021/06/09 01:30:43;;;;;;;;;;;;;;;17.34;58.90;100834.34;4920204;29;19986;-64
2021/06/09 01:33:10;;;;;;;;;;;;;;;17.34;58.67;100839.16;4920117;29;20033;-64
2021/06/09 01:35:37;;;;;;;;;;;;;;;17.32;58.65;100835.81;4920333;29;19923;-64
2021/06/09 01:38:05;;;;;;;;;;;;;;;17.31;58.93;100828.50;4919968;29;19923;-64
2021/06/09 01:40:32;;;;;;;;;;;;;;;17.30;58.75;100822.03;4920287;29;20002;-64
2021/06/09 01:42:59;;;;;;;;;;;;;;;17.30;58.77;100827.66;4919964;29;20017;-64
2021/06/09 01:45:27;;;;;;;;;;;;;;;17.30;59.00;100827.66;4919886;29;20026;-64
2021/06/09 01:47:54;;;;;;;;;;;;;;;17.29;59.05;100829.63;4920183;29;20348;-64
2021/06/09 01:50:21;;;;;;;;;;;;;;;17.31;58.76;100828.50;4919459;29;19923;-64
2021/06/09 01:52:49;;;;;;;;;;;;;;;17.29;58.97;100826.81;4920052;29;20022;-64
2021/06/09 01:55:16;;;;;;;;;;;;;;;17.27;59.15;100823.47;4919939;29;19962;-64
2021/06/09 01:57:43;;;;;;;;;;;;;;;17.24;59.84;100828.94;4919797;29;20427;-64
2021/06/09 02:00:18;;;;;;;;;;;;;;;17.23;60.16;100830.06;4919982;29;20341;-63
2021/06/09 02:02:45;;;;;;;;;;;;;;;17.29;60.69;100826.81;4902827;29;20034;-64
2021/06/09 02:05:12;;;;;;;;;;;;;;;17.28;61.03;100819.50;4902816;29;20026;-64
2021/06/09 02:07:44;;;;;;;;;;;;;;;17.28;61.58;100818.66;4919484;29;20447;-64
2021/06/09 02:10:12;;;;;;;;;;;;;;;17.28;61.77;100822.31;4919739;29;20288;-64
2021/06/09 02:12:40;;;;;;;;;;;;;;;17.32;62.05;100816.03;4919690;29;20465;-64
2021/06/09 02:15:08;;;;;;;;;;;;;;;17.32;62.19;100819.69;4919316;29;20013;-64
2021/06/09 02:17:35;;;;;;;;;;;;;;;17.34;62.03;100820.22;4919318;29;19930;-64
2021/06/09 02:20:03;;;;;;;;;;;;;;;17.36;61.82;100808.59;4919384;29;20082;-64
2021/06/09 02:22:30;;;;;;;;;;;;;;;17.38;61.60;100806.31;4919322;29;19923;-65
2021/06/09 02:24:57;;;;;;;;;;;;;;;17.38;61.64;100814.78;4919448;29;20029;-65
2021/06/09 02:27:24;;;;;;;;;;;;;;;17.37;61.80;100815.94;4919403;29;20018;-65
2021/06/09 02:29:51;;;;;;;;;;;;;;;17.37;61.85;100804.63;4919508;29;20339;-64
2021/06/09 02:32:18;;;;;;;;;;;;;;;17.36;61.92;100815.06;4902355;29;19974;-64
2021/06/09 02:34:45;;;;;;;;;;;;;;;17.36;61.95;100808.59;4918962;29;20026;-64
2021/06/09 02:37:11;;;;;;;;;;;;;;;17.34;61.79;100811.75;4902498;29;20013;-64
2021/06/09 02:39:38;;;;;;;;;;;;;;;17.34;61.83;100813.75;4919236;29;19966;-64
2021/06/09 02:42:05;;;;;;;;;;;;;;;17.31;61.85;100806.75;4919152;29;20338;-64
2021/06/09 02:44:32;;;;;;;;;;;;;;;17.27;62.24;100812.19;4918878;29;19962;-64
2021/06/09 02:46:59;;;;;;;;;;;;;;;17.23;61.91;100808.34;4919026;29;19998;-64
2021/06/09 02:49:27;;;;;;;;;;;;;;;17.22;62.63;100794.53;4919088;29;19923;-64
2021/06/09 02:52:03;;;;;;;;;;;;;;;17.18;62.45;100791.53;4919502;29;20025;-64
2021/06/09 02:54:33;;;;;;;;;;;;;;;17.16;62.59;100793.00;4918627;29;19974;-64
2021/06/09 02:57:16;;;;;;;;;;;;;;;17.16;62.59;100804.28;4918955;29;19978;-64
2021/06/09 02:59:43;;;;;;;;;;;;;;;17.18;62.63;100805.63;4918572;29;19974;-64
2021/06/09 03:02:29;;;;;;;;;;;;;;;17.20;62.57;100806.16;4917948;29;20332;-64
2021/06/09 03:04:58;;;;;;;;;;;;;;;17.20;62.34;100817.44;4902213;29;19979;-64
2021/06/09 03:07:28;;;;;;;;;;;;;;;17.21;62.62;100824.75;4918435;29;20388;-64
2021/06/09 03:09:54;;;;;;;;;;;;;;;17.24;62.12;100829.75;4919492;29;19922;-64
2021/06/09 03:12:39;;;;;;;;;;;;;;;17.26;61.94;100826.59;4918372;29;20440;-64
2021/06/09 03:15:11;;;;;;;;;;;;;;;17.30;61.81;100827.66;4918317;29;19966;-64
2021/06/09 03:17:43;;;;;;;;;;;;;;;17.33;61.93;100829.00;4901566;29;20368;-64
2021/06/09 03:20:28;;;;;;;;;;;;;;;17.30;61.48;100822.03;4918361;29;20001;-64
2021/06/09 03:22:58;;;;;;;;;;;;;;;17.29;61.82;100821.16;4918162;29;19981;-64
2021/06/09 03:25:30;;;;;;;;;;;;;;;17.32;61.34;100830.97;4918376;29;19923;-63
2021/06/09 03:28:26;;;;;;;;;;;;;;;17.33;61.43;100829.00;4918497;29;19961;-64
2021/06/09 03:30:57;;;;;;;;;;;;;;;17.29;61.31;100832.44;4909718;29;20017;-64
2021/06/09 03:33:38;;;;;;;;;;;;;;;17.28;61.29;100829.97;5090304;27;20223;-63
2021/06/09 03:36:14;;;;;;;;;;;;;;;17.24;60.88;100828.94;5078258;28;20451;-63
2021/06/09 03:39:00;;;;;;;;;;;;;;;17.20;61.07;100828.75;5069765;28;19975;-63
2021/06/09 03:41:33;;;;;;;;;;;;;;;17.16;61.04;100832.50;5069851;28;20007;-64
2021/06/09 03:44:01;;;;;;;;;;;;;;;17.11;60.96;100830.63;5070659;28;19994;-64
2021/06/09 03:46:28;;;;;;;;;;;;;;;17.09;61.12;100830.09;5076179;28;20020;-63
2021/06/09 03:48:57;;;;;;;;;;;;;;;17.08;61.13;100824.81;5069787;28;19928;-63
2021/06/09 03:51:28;;;;;;;;;;;;;;;17.05;61.17;100827.09;5069846;28;20019;-64
2021/06/09 03:53:57;;;;;;;;;;;;;;;17.00;60.86;100830.03;5069719;28;20023;-63
2021/06/09 03:56:26;;;;;;;;;;;;;;;16.99;61.23;100834.03;5069372;28;19968;-63
2021/06/09 03:58:53;;;;;;;;;;;;;;;16.98;60.90;100832.34;5069746;28;19960;-63
2021/06/09 04:01:20;;;;;;;;;;;;;;;16.99;60.88;100844.44;5070108;28;20027;-63
2021/06/09 04:03:48;;;;;;;;;;;;;;;16.98;60.86;100837.97;5069829;28;19925;-63
2021/06/09 04:06:17;;;;;;;;;;;;;;;16.99;61.15;100838.81;5051730;28;20015;-63
2021/06/09 04:08:46;;;;;;;;;;;;;;;16.99;60.94;100838.81;5069313;28;19925;-63
2021/06/09 04:11:14;;;;;;;;;;;;;;;16.97;61.05;100824.19;5068997;28;20023;-63
2021/06/09 04:13:41;;;;;;;;;;;;;;;16.95;60.91;100820.84;5069401;28;20427;-63
2021/06/09 04:16:08;;;;;;;;;;;;;;;16.91;60.88;100823.47;5069098;28;20019;-63
2021/06/09 04:18:36;;;;;;;;;;;;;;;16.89;61.20;100819.28;5069693;28;19979;-63
2021/06/09 04:21:05;;;;;;;;;;;;;;;16.86;61.87;100823.59;5068804;28;20007;-63
2021/06/09 04:23:31;;;;;;;;;;;;;;;16.84;62.34;100825.91;5069353;28;20000;-63
2021/06/09 04:25:58;;;;;;;;;;;;;;;16.83;62.50;100837.50;5068897;28;20388;-63
2021/06/09 04:28:26;;;;;;;;;;;;;;;16.81;62.59;100844.28;5079555;28;20022;-64
2021/06/09 04:30:53;;;;;;;;;;;;;;;16.81;62.57;100841.44;5089067;28;20027;-63
2021/06/09 04:33:26;;;;;;;;;;;;;;;16.80;62.64;100834.16;5073053;28;20023;-64
2021/06/09 04:35:53;;;;;;;;;;;;;;;16.79;63.00;100834.47;5069289;28;20482;-63
2021/06/09 04:38:20;;;;;;;;;;;;;;;16.72;63.09;100820.78;5068447;28;20444;-63
2021/06/09 04:40:49;;;;;;;;;;;;;;;16.70;63.41;100831.53;5068654;28;20015;-63
2021/06/09 04:43:16;;;;;;;;;;;;;;;16.66;63.39;100835.28;5064491;28;19964;-64
2021/06/09 04:45:43;;;;;;;;;;;;;;;16.67;63.19;100848.25;5055428;28;20015;-63
2021/06/09 04:48:10;;;;;;;;;;;;;;;16.69;63.08;100843.97;5056000;28;19924;-63
2021/06/09 04:50:37;;;;;;;;;;;;;;;16.68;62.58;100835.81;5055042;28;19928;-63
2021/06/09 04:53:13;;;;;;;;;;;;;;;16.67;62.71;100828.50;5055770;28;20019;-63
2021/06/09 04:55:40;;;;;;;;;;;;;;;16.67;62.52;100832.16;5055489;28;20015;-63
2021/06/09 04:58:08;;;;;;;;;;;;;;;16.69;62.66;100829.03;5055240;28;20004;-63
2021/06/09 05:00:39;;;;;;;;;;;;;;;16.66;62.84;100824.84;5054807;28;19951;-64
2021/06/09 05:03:05;;;;;;;;;;;;;;;16.64;63.26;100827.13;5055262;28;20012;-63
2021/06/09 05:05:32;;;;;;;;;;;;;;;16.62;63.71;100818.19;5055253;28;20427;-63
2021/06/09 05:07:59;;;;;;;;;;;;;;;16.58;63.41;100826.44;5054980;28;20396;-63
2021/06/09 05:10:26;;;;;;;;;;;;;;;16.55;63.87;100823.41;5055355;28;20471;-63
2021/06/09 05:12:55;;;;;;;;;;;;;;;16.53;64.22;100825.69;5054809;28;20015;-63
2021/06/09 05:15:25;;;;;;;;;;;;;;;16.53;64.43;100831.34;5054696;28;20464;-63
2021/06/09 05:17:52;;;;;;;;;;;;;;;16.52;64.65;100838.13;5054982;28;20012;-63
2021/06/09 05:20:22;;;;;;;;;;;;;;;16.46;65.11;100837.38;5054844;28;19929;-63
2021/06/09 05:22:51;;;;;;;;;;;;;;;16.42;65.65;100829.88;5054905;28;19946;-63
2021/06/09 05:25:19;;;;;;;;;;;;;;;16.47;65.59;100830.59;5054913;28;19925;-63
2021/06/09 05:27:46;;;;;;;;;;;;;;;16.55;65.51;100838.34;5055087;28;19924;-63
2021/06/09 05:30:15;;;;;;;;;;;;;;;16.68;65.07;100835.81;5054759;28;19933;-63
2021/06/09 05:32:42;;;;;;;;;;;;;;;16.80;64.98;100836.97;5054043;28;20012;-63
2021/06/09 05:35:09;;;;;;;;;;;;;;;16.91;65.00;100836.75;5054717;28;19960;-63
2021/06/09 05:37:36;;;;;;;;;;;;;;;17.00;64.92;100837.69;5054725;28;20031;-63
2021/06/09 05:40:08;;;;;;;;;;;;;;;17.12;64.59;100840.75;5054346;28;20011;-63
2021/06/09 05:42:35;;;;;;;;;;;;;;;17.28;64.23;100844.91;5054191;28;19964;-63
2021/06/09 05:45:03;;;;;;;;;;;;;;;17.43;64.20;100846.50;5064647;28;19968;-65
2021/06/09 05:47:30;;;;;;;;;;;;;;;17.60;63.86;100842.16;5074588;28;19970;-64
2021/06/09 05:50:10;;;;;;;;;;;;;;;17.71;63.78;100837.94;5074605;28;19999;-63
2021/06/09 05:52:37;;;;;;;;;;;;;;;17.79;63.78;100845.66;5065884;28;19995;-63
2021/06/09 05:55:05;;;;;;;;;;;;;;;17.86;63.66;100833.91;5053157;28;19925;-63
2021/06/09 05:57:32;;;;;;;;;;;;;;;17.98;63.83;100835.00;5053975;28;19963;-63
2021/06/09 05:59:59;;;;;;;;;;;;;;;18.60;62.14;100838.94;5054810;28;19964;-63
2021/06/09 06:02:29;;;;;;;;;;;;;;;19.00;61.10;100841.69;5053886;28;19925;-63
2021/06/09 06:04:57;;;;;;;;;;;;;;;19.22;60.62;100837.91;5054178;28;20031;-63
2021/06/09 06:07:24;;;;;;;;;;;;;;;19.42;60.12;100848.56;5053698;28;20371;-64
2021/06/09 06:09:51;;;;;;;;;;;;;;;19.68;60.15;100851.41;5053687;28;20355;-63
2021/06/09 06:12:18;;;;;;;;;;;;;;;19.93;59.65;100855.41;5054870;28;20028;-63
2021/06/09 06:14:45;;;;;;;;;;;;;;;20.15;59.71;100854.31;5073585;28;19925;-63
2021/06/09 06:17:12;;;;;;;;;;;;;;;20.38;59.56;100865.44;5072815;28;20360;-63
2021/06/09 06:19:38;;;;;;;;;;;;;;;20.50;59.23;100862.72;5073384;28;19967;-64
2021/06/09 06:22:09;;;;;;;;;;;;;;;20.48;59.57;100865.91;5061590;28;19925;-64
2021/06/09 06:24:40;;;;;;;;;;;;;;;20.51;59.44;100882.28;5053398;28;20015;-63
2021/06/09 06:27:10;;;;;;;;;;;;;;;20.60;59.19;100879.38;5053788;28;20000;-64
2021/06/09 06:29:38;;;;;;;;;;;;;;;20.69;59.14;100876.53;5053651;28;20012;-63
2021/06/09 06:32:05;;;;;;;;;;;;;;;20.75;59.48;100883.66;5069545;28;19970;-63
2021/06/09 06:34:37;;;;;;;;;;;;;;;20.80;59.43;100880.63;5071218;28;20383;-63
2021/06/09 06:37:04;;;;;;;;;;;;;;;20.96;59.44;100883.72;5073348;28;19963;-64
2021/06/09 06:39:31;;;;;;;;;;;;;;;21.16;59.12;100890.59;5066661;28;20020;-64
2021/06/09 06:41:58;;;;;;;;;;;;;;;21.35;58.70;100893.00;5056316;28;20011;-63
2021/06/09 06:44:24;;;;;;;;;;;;;;;21.43;58.78;100890.09;5073060;28;20328;-63
2021/06/09 06:46:54;;;;;;;;;;;;;;;21.50;58.85;100896.09;5072854;28;19925;-63
2021/06/09 06:49:21;;;;;;;;;;;;;;;21.64;58.56;100900.63;5052994;28;19932;-63
2021/06/09 06:51:51;;;;;;;;;;;;;;;21.74;58.34;100900.22;5053513;28;20015;-63
2021/06/09 06:54:19;;;;;;;;;;;;;;;21.80;58.23;100901.66;5052807;28;19947;-63
2021/06/09 06:56:48;;;;;;;;;;;;;;;21.85;58.31;100907.16;5053073;28;20317;-63
2021/06/09 06:59:14;;;;;;;;;;;;;;;21.99;58.01;100890.63;5052980;28;19924;-63
2021/06/09 07:01:41;;;;;;;;;;;;;;;22.20;57.75;100899.13;5052686;28;20372;-64
2021/06/09 07:04:08;;;;;;;;;;;;;;;22.35;57.32;100909.00;5052624;28;19987;-63
2021/06/09 07:06:35;;;;;;;;;;;;;;;22.45;57.41;100911.41;5052272;28;20019;-63
2021/06/09 07:09:19;;;;;;;;;;;;;;;22.52;56.93;100907.13;5053343;28;19932;-64
2021/06/09 07:11:47;;;;;;;;;;;;;;;22.67;56.91;100904.44;5052668;28;19984;-63
2021/06/09 07:14:14;;;;;;;;;;;;;;;22.86;56.43;100895.31;5052825;28;20379;-64
2021/06/09 07:16:43;;;;;;;;;;;;;;;23.04;56.59;100892.25;5052630;28;19931;-63
2021/06/09 07:19:11;;;;;;;;;;;;;;;23.23;55.71;100898.19;5052807;28;20007;-64
2021/06/09 07:21:38;;;;;;;;;;;;;;;23.38;55.42;100886.06;5052877;28;20317;-63
2021/06/09 07:24:05;;;;;;;;;;;;;;;23.55;55.19;100892.63;5052807;28;19967;-63
2021/06/09 07:26:43;;;;;;;;;;;;;;;23.71;55.27;100887.88;5053195;28;20177;-63
2021/06/09 07:29:10;;;;;;;;;;;;;;;23.86;54.74;100878.56;5052281;28;19968;-64
2021/06/09 07:31:38;;;;;;;;;;;;;;;23.98;54.75;100891.09;5052248;28;19982;-63
2021/06/09 07:34:06;;;;;;;;;;;;;;;24.07;54.76;100897.47;5062551;28;20394;-64
2021/06/09 07:36:32;;;;;;;;;;;;;;;24.23;54.58;100903.22;5072492;28;20020;-63
2021/06/09 07:39:01;;;;;;;;;;;;;;;24.13;54.39;100910.28;5068751;28;20007;-63
2021/06/09 07:41:29;;;;;;;;;;;;;;;24.07;54.45;100908.91;5052289;28;20015;-64
2021/06/09 07:43:57;;;;;;;;;;;;;;;23.99;54.91;100910.69;5062157;28;20027;-64
2021/06/09 07:46:27;;;;;;;;;;;;;;;24.04;54.97;100910.44;5071165;28;20444;-63
2021/06/09 07:48:57;;;;;;;;;;;;;;;24.04;54.92;100921.84;5072445;28;19930;-63
2021/06/09 07:51:25;;;;;;;;;;;;;;;24.14;54.90;100923.38;5072193;28;19963;-64
2021/06/09 07:53:54;;;;;;;;;;;;;;;24.17;54.71;100925.50;5072116;28;20015;-64
2021/06/09 07:56:21;;;;;;;;;;;;;;;24.31;54.35;100925.88;5060925;28;20388;-64
2021/06/09 07:58:49;;;;;;;;;;;;;;;24.62;53.49;100920.63;5052279;28;20015;-64
2021/06/09 08:01:15;;;;;;;;;;;;;;;24.88;53.55;100920.06;5052648;28;20189;-64
2021/06/09 08:03:43;;;;;;;;;;;;;;;25.06;53.11;100927.91;5052472;28;20265;-63
2021/06/09 08:06:10;;;;;;;;;;;;;;;25.03;52.58;100927.81;5052258;28;19960;-63
2021/06/09 08:08:37;;;;;;;;;;;;;;;24.85;52.78;100924.47;5052035;28;20035;-64
2021/06/09 08:11:05;;;;;;;;;;;;;;;24.91;52.95;100928.72;5052184;28;20011;-64
2021/06/09 08:13:32;;;;;;;;;;;;;;;25.05;53.02;100928.25;5052047;28;20023;-64
2021/06/09 08:15:58;;;;;;;;;;;;;;;25.19;52.55;100924.94;5055197;28;19967;-64
2021/06/09 08:18:25;;;;;;;;;;;;;;;25.40;52.38;100930.34;5072887;28;19931;-64
2021/06/09 08:21:02;;;;;;;;;;;;;;;25.51;52.00;100937.16;5076028;28;19925;-64
2021/06/09 08:23:29;;;;;;;;;;;;;;;25.63;51.64;100927.59;5074425;28;19972;-64
2021/06/09 08:25:56;;;;;;;;;;;;;;;25.86;51.64;100922.03;5075712;28;20111;-64
2021/06/09 08:28:23;;;;;;;;;;;;;;;26.14;50.63;100931.19;5075627;28;20023;-65
2021/06/09 08:30:49;;;;;;;;;;;;;;;26.30;50.57;100933.16;5067275;28;19956;-64
2021/06/09 08:33:16;;;;;;;;;;;;;;;26.47;50.23;100938.44;5055708;28;20460;-64
2021/06/09 08:35:43;;;;;;;;;;;;;;;26.60;50.04;100942.78;5055469;28;20312;-64
2021/06/09 08:38:10;;;;;;;;;;;;;;;26.73;49.96;100937.66;5055796;28;19971;-64
2021/06/09 08:40:37;;;;;;;;;;;;;;;26.85;49.68;100931.75;5055333;28;20019;-63
2021/06/09 08:43:04;;;;;;;;;;;;;;;27.01;49.45;100939.38;5055147;28;19929;-63
2021/06/09 08:45:31;;;;;;;;;;;;;;;26.93;49.43;100935.56;5055476;28;20353;-63
2021/06/09 08:47:59;;;;;;;;;;;;;;;26.85;49.61;100930.94;5055528;28;19924;-64
2021/06/09 08:50:26;;;;;;;;;;;;;;;26.98;49.02;100929.53;5055531;28;20023;-65
2021/06/09 08:52:53;;;;;;;;;;;;;;;27.20;48.77;100925.00;5054770;28;19978;-62
2021/06/09 08:55:20;;;;;;;;;;;;;;;27.39;48.28;100922.03;5055124;28;19931;-63
2021/06/09 08:57:47;;;;;;;;;;;;;;;27.58;47.95;100915.31;5055214;28;19955;-63
2021/06/09 09:00:16;;;;;;;;;;;;;;;27.65;47.88;100912.53;5055037;28;20400;-63
2021/06/09 09:02:45;;;;;;;;;;;;;;;27.74;47.55;100911.44;5064168;28;20003;-64
2021/06/09 09:05:12;;;;;;;;;;;;;;;27.86;47.27;100922.69;5074893;28;20019;-64
2021/06/09 09:07:38;;;;;;;;;;;;;;;27.86;47.40;100916.94;5074155;28;19925;-66
2021/06/09 09:10:07;;;;;;;;;;;;;;;27.83;47.18;100912.84;5064099;28;20420;-65
2021/06/09 09:12:35;;;;;;;;;;;;;;;27.97;47.09;100906.44;5054646;28;19964;-65
2021/06/09 09:15:02;;;;;;;;;;;;;;;28.02;46.78;100905.28;5074598;28;19925;-64
2021/06/09 09:17:29;;;;;;;;;;;;;;;28.10;46.54;100913.59;5074844;28;20012;-65
2021/06/09 09:20:04;;;;;;;;;;;;;;;28.23;46.39;100916.19;5074751;28;20016;-64
2021/06/09 09:22:35;;;;;;;;;;;;;;;28.39;45.37;100910.25;5069181;28;19925;-64
2021/06/09 09:25:12;;;;;;;;;;;;;;;28.60;45.12;100921.13;5055308;28;19925;-64
2021/06/09 09:27:39;;;;;;;;;;;;;;;28.73;44.74;100914.69;5041164;28;20019;-64
2021/06/09 09:30:07;;;;;;;;;;;;;;;28.92;44.29;100916.47;5053265;28;20011;-64
2021/06/09 09:32:34;;;;;;;;;;;;;;;29.09;43.85;100914.19;5054338;28;20016;-64
2021/06/09 09:35:06;;;;;;;;;;;;;;;29.19;43.43;100916.31;5054378;28;19925;-64
2021/06/09 09:37:33;;;;;;;;;;;;;;;29.31;42.92;100916.00;5054224;28;20436;-64
2021/06/09 09:40:05;;;;;;;;;;;;;;;29.46;42.76;100908.28;5054549;28;20008;-65
2021/06/09 09:42:35;;;;;;;;;;;;;;;29.60;42.59;100902.66;5060499;28;20018;-64
2021/06/09 09:45:17;;;;;;;;;;;;;;;29.57;42.47;100905.47;5068807;28;19931;-64
2021/06/09 09:47:45;;;;;;;;;;;;;;;29.47;42.80;100898.44;5054324;28;19949;-64
2021/06/09 09:50:31;;;;;;;;;;;;;;;29.51;42.45;100900.13;5069296;28;19925;-64
2021/06/09 09:53:17;;;;;;;;;;;;;;;29.59;42.02;100900.16;5065148;28;19935;-64
2021/06/09 09:56:04;;;;;;;;;;;;;;;29.88;41.84;100902.00;5054180;28;19952;-64
2021/06/09 09:58:32;;;;;;;;;;;;;;;30.16;41.21;100904.16;5044258;28;20020;-64
2021/06/09 10:01:13;;;;;;;;;;;;;;;30.30;40.66;100893.94;5053859;28;19924;-64
2021/06/09 10:03:41;;;;;;;;;;;;;;;30.32;40.36;100897.22;5053991;28;19924;-64
2021/06/09 10:06:18;;;;;;;;;;;;;;;30.43;39.75;100896.00;5053924;28;19991;-64
2021/06/09 10:08:44;;;;;;;;;;;;;;;30.36;39.62;100890.25;5053886;28;20451;-64
2021/06/09 10:11:12;;;;;;;;;;;;;;;30.43;39.51;100895.19;5053371;28;20019;-64
2021/06/09 10:13:38;;;;;;;;;;;;;;;30.63;39.02;100892.72;5053448;28;20023;-64
2021/06/09 10:16:20;;;;;;;;;;;;;;;30.70;39.31;100892.72;5054432;28;20012;-64
2021/06/09 10:19:13;;;;;;;;;;;;;;;30.93;39.72;100883.72;5053655;28;19925;-64
2021/06/09 10:21:48;;;;;;;;;;;;;;;30.83;39.45;100893.19;5051647;28;19925;-64
2021/06/09 10:24:16;;;;;;;;;;;;;;;30.87;40.01;100885.38;5053669;28;19999;-65
2021/06/09 10:26:52;;;;;;;;;;;;;;;30.84;39.91;100884.16;5053590;28;19931;-64
2021/06/09 10:29:21;;;;;;;;;;;;;;;31.08;40.40;100884.56;5056728;28;19990;-65
2021/06/09 10:31:50;;;;;;;;;;;;;;;31.18;40.68;100889.50;5073059;28;20003;-64
2021/06/09 10:34:17;;;;;;;;;;;;;;;31.39;40.52;100889.47;5053125;28;20008;-63
2021/06/09 10:36:46;;;;;;;;;;;;;;;31.51;40.67;100884.50;5052668;28;20388;-63
2021/06/09 10:39:15;;;;;;;;;;;;;;;31.67;40.46;100881.16;5053225;28;20361;-64
2021/06/09 10:41:43;;;;;;;;;;;;;;;31.78;40.40;100882.75;5052461;28;19931;-64
2021/06/09 10:44:10;;;;;;;;;;;;;;;31.97;40.14;100881.47;5052888;28;20011;-64
2021/06/09 10:46:38;;;;;;;;;;;;;;;32.13;40.19;100883.03;5053038;28;20011;-64
2021/06/09 10:49:06;;;;;;;;;;;;;;;32.25;39.96;100889.16;5052818;28;20011;-64
2021/06/09 10:51:33;;;;;;;;;;;;;;;32.43;40.45;100882.47;5052988;28;20023;-65
2021/06/09 10:54:03;;;;;;;;;;;;;;;32.54;40.28;100889.00;5061931;28;19925;-64
2021/06/09 10:56:30;;;;;;;;;;;;;;;32.61;39.98;100891.81;5072936;28;20020;-64
2021/06/09 10:58:56;;;;;;;;;;;;;;;32.58;40.45;100895.56;5072948;28;20392;-64
2021/06/09 11:01:24;;;;;;;;;;;;;;;32.54;40.47;100891.88;5061079;28;20019;-64
2021/06/09 11:03:54;;;;;;;;;;;;;;;32.56;39.80;100896.00;5052736;28;19925;-65
2021/06/09 11:06:33;;;;;;;;;;;;;;;32.68;40.29;100888.06;5053336;28;19924;-64
2021/06/09 11:09:12;;;;;;;;;;;;;;;32.74;39.98;100892.97;5052781;28;19925;-64
2021/06/09 11:11:39;;;;;;;;;;;;;;;32.85;40.17;100889.16;5052599;28;20015;-63
2021/06/09 11:14:19;;;;;;;;;;;;;;;33.02;40.05;100888.22;5052745;28;20019;-64
2021/06/09 11:16:50;;;;;;;;;;;;;;;32.98;39.97;100872.97;5052624;28;20019;-64
2021/06/09 11:19:36;;;;;;;;;;;;;;;32.95;39.85;100879.59;5052530;28;20019;-64
2021/06/09 11:22:22;;;;;;;;;;;;;;;32.88;40.10;100873.84;5052762;28;19971;-64
2021/06/09 11:25:08;;;;;;;;;;;;;;;33.01;39.96;100877.91;5053094;28;20015;-64
2021/06/09 11:27:35;;;;;;;;;;;;;;;33.07;39.53;100876.22;5052467;28;20019;-64
2021/06/09 11:30:21;;;;;;;;;;;;;;;33.19;39.73;100877.72;5052425;28;20444;-63
2021/06/09 11:32:47;;;;;;;;;;;;;;;33.39;39.69;100875.06;5052008;28;19931;-64
2021/06/09 11:35:15;;;;;;;;;;;;;;;33.67;39.62;100871.84;5052727;28;19929;-64
2021/06/09 11:37:42;;;;;;;;;;;;;;;33.88;39.24;100878.63;5035371;28;20338;-65
2021/06/09 11:40:09;;;;;;;;;;;;;;;34.01;39.18;100879.72;5052805;28;19925;-64
2021/06/09 11:42:36;;;;;;;;;;;;;;;33.96;39.14;100863.63;5067558;28;19970;-65
2021/06/09 11:45:22;;;;;;;;;;;;;;;33.98;38.84;100868.97;5069250;28;19960;-65
2021/06/09 11:47:48;;;;;;;;;;;;;;;34.11;38.56;100864.28;5052339;28;20395;-65
2021/06/09 11:50:25;;;;;;;;;;;;;;;34.25;38.69;100865.31;5052194;28;20320;-65
2021/06/09 11:53:12;;;;;;;;;;;;;;;34.40;38.91;100866.78;5052311;28;20020;-65
2021/06/09 11:55:42;;;;;;;;;;;;;;;34.61;38.60;100857.75;5056268;28;19929;-65
2021/06/09 11:58:11;;;;;;;;;;;;;;;34.36;38.35;100860.19;5057070;28;20023;-65
2021/06/09 12:00:56;;;;;;;;;;;;;;;34.20;38.64;100861.66;5056470;28;19956;-65
2021/06/09 12:03:23;;;;;;;;;;;;;;;34.54;37.76;100852.06;5056043;28;20410;-66
2021/06/09 12:05:49;;;;;;;;;;;;;;;34.80;36.28;100852.47;5056178;28;19992;-64
2021/06/09 12:08:16;;;;;;;;;;;;;;;35.23;35.46;100854.63;5056041;28;19929;-64
2021/06/09 12:10:43;;;;;;;;;;;;;;;35.60;35.06;100848.53;5038679;28;19931;-64
2021/06/09 12:13:24;;;;;;;;;;;;;;;35.93;33.90;100848.63;5055876;28;20280;-64
2021/06/09 12:16:00;;;;;;;;;;;;;;;36.66;32.56;100842.84;5056424;28;20448;-64
2021/06/09 12:18:28;;;;;;;;;;;;;;;37.45;31.54;100841.59;5065089;28;20015;-64
2021/06/09 12:21:08;;;;;;;;;;;;;;;38.30;29.79;100835.28;5076145;28;20544;-64
2021/06/09 12:23:35;;;;;;;;;;;;;;;39.06;28.45;100836.53;5075665;28;20340;-64
2021/06/09 12:26:03;;;;;;;;;;;;;;;39.89;27.60;100840.16;5059763;28;20015;-65
2021/06/09 12:28:30;;;;;;;;;;;;;;;40.18;27.34;100840.69;5056038;28;20019;-65
2021/06/09 12:30:59;;;;;;;;;;;;;;;40.45;26.78;100839.19;5056337;28;20355;-67
2021/06/09 12:33:33;;;;;;;;;;;;;;;40.85;26.22;100836.22;5055150;28;19979;-69
2021/06/09 12:36:00;;;;;;;;;;;;;;;41.20;26.03;100838.94;5055658;28;19925;-65
2021/06/09 12:38:28;;;;;;;;;;;;;;;41.56;25.77;100829.34;5055782;28;20342;-65
2021/06/09 12:40:55;;;;;;;;;;;;;;;41.99;25.54;100823.59;5053829;28;19935;-65
2021/06/09 12:43:23;;;;;;;;;;;;;;;42.14;25.72;100827.44;5055481;28;20007;-64
2021/06/09 12:45:51;;;;;;;;;;;;;;;42.15;25.20;100829.06;5055279;28;19939;-63
2021/06/09 12:48:19;;;;;;;;;;;;;;;42.95;24.76;100827.56;5055480;28;19978;-65